sensor_id;sensor_type;location;lat;lon;timestamp;P1;durP1;ratioP1;P2;durP2;ratioP2
10333;SDS011;5212;47.892;16.406;2024-03-02T00:01:52;32.30;;;16.10;;
10333;SDS011;5212;47.892;16.406;2024-03-02T00:04:18;29.93;;;16.17;;
10333;SDS011;5212;47.892;16.406;2024-03-02T00:06:44;32.17;;;15.30;;
10333;SDS011;5212;47.892;16.406;2024-03-02T00:09:10;32.47;;;16.03;;
10333;SDS011;5212;47.892;16.406;2024-03-02T00:11:37;32.33;;;16.13;;
10333;SDS011;5212;47.892;16.406;2024-03-02T00:14:04;34.67;;;16.70;;
10333;SDS011;5212;47.892;16.406;2024-03-02T00:16:30;39.00;;;19.60;;
10333;SDS011;5212;47.892;16.406;2024-03-02T00:18:58;35.23;;;17.70;;
10333;SDS011;5212;47.892;16.406;2024-03-02T00:21:27;37.53;;;19.87;;
10333;SDS011;5212;47.892;16.406;2024-03-02T00:23:53;35.87;;;19.10;;
10333;SDS011;5212;47.892;16.406;2024-03-02T00:26:19;37.47;;;18.60;;
10333;SDS011;5212;47.892;16.406;2024-03-02T00:28:45;33.33;;;17.23;;
10333;SDS011;5212;47.892;16.406;2024-03-02T00:31:12;35.40;;;18.47;;
10333;SDS011;5212;47.892;16.406;2024-03-02T00:33:40;38.23;;;19.50;;
10333;SDS011;5212;47.892;16.406;2024-03-02T00:36:08;39.40;;;20.30;;
10333;SDS011;5212;47.892;16.406;2024-03-02T00:38:34;40.53;;;20.13;;
10333;SDS011;5212;47.892;16.406;2024-03-02T00:41:05;41.77;;;21.13;;
10333;SDS011;5212;47.892;16.406;2024-03-02T00:43:40;43.30;;;21.33;;
10333;SDS011;5212;47.892;16.406;2024-03-02T00:46:08;40.53;;;20.37;;
10333;SDS011;5212;47.892;16.406;2024-03-02T00:48:34;43.40;;;22.17;;
10333;SDS011;5212;47.892;16.406;2024-03-02T00:51:01;40.80;;;21.20;;
10333;SDS011;5212;47.892;16.406;2024-03-02T00:53:29;42.20;;;22.07;;
10333;SDS011;5212;47.892;16.406;2024-03-02T00:55:55;38.47;;;19.63;;
10333;SDS011;5212;47.892;16.406;2024-03-02T00:58:21;43.20;;;21.33;;
10333;SDS011;5212;47.892;16.406;2024-03-02T01:00:47;39.37;;;21.47;;
10333;SDS011;5212;47.892;16.406;2024-03-02T01:03:13;39.43;;;22.03;;
10333;SDS011;5212;47.892;16.406;2024-03-02T01:05:41;37.10;;;21.27;;
10333;SDS011;5212;47.892;16.406;2024-03-02T01:08:07;33.07;;;18.53;;
10333;SDS011;5212;47.892;16.406;2024-03-02T01:10:33;38.60;;;20.43;;
10333;SDS011;5212;47.892;16.406;2024-03-02T01:12:59;36.53;;;20.43;;
10333;SDS011;5212;47.892;16.406;2024-03-02T01:15:26;38.87;;;20.77;;
10333;SDS011;5212;47.892;16.406;2024-03-02T01:17:52;39.80;;;22.33;;
10333;SDS011;5212;47.892;16.406;2024-03-02T01:20:18;39.27;;;19.80;;
10333;SDS011;5212;47.892;16.406;2024-03-02T01:22:44;35.67;;;19.60;;
10333;SDS011;5212;47.892;16.406;2024-03-02T01:25:10;36.33;;;19.33;;
10333;SDS011;5212;47.892;16.406;2024-03-02T01:27:37;37.03;;;18.90;;
10333;SDS011;5212;47.892;16.406;2024-03-02T01:30:03;34.00;;;19.87;;
10333;SDS011;5212;47.892;16.406;2024-03-02T01:32:29;38.77;;;20.70;;
10333;SDS011;5212;47.892;16.406;2024-03-02T01:34:55;36.40;;;20.27;;
10333;SDS011;5212;47.892;16.406;2024-03-02T01:37:21;37.57;;;19.60;;
10333;SDS011;5212;47.892;16.406;2024-03-02T01:39:47;35.27;;;18.37;;
10333;SDS011;5212;47.892;16.406;2024-03-02T01:42:13;38.73;;;20.63;;
10333;SDS011;5212;47.892;16.406;2024-03-02T01:44:40;37.10;;;18.87;;
10333;SDS011;5212;47.892;16.406;2024-03-02T01:47:06;34.40;;;18.83;;
10333;SDS011;5212;47.892;16.406;2024-03-02T01:49:33;32.07;;;18.40;;
10333;SDS011;5212;47.892;16.406;2024-03-02T01:51:59;38.70;;;21.40;;
10333;SDS011;5212;47.892;16.406;2024-03-02T01:54:25;35.07;;;20.07;;
10333;SDS011;5212;47.892;16.406;2024-03-02T01:56:51;32.43;;;18.37;;
10333;SDS011;5212;47.892;16.406;2024-03-02T01:59:17;32.37;;;18.43;;
10333;SDS011;5212;47.892;16.406;2024-03-02T02:01:44;31.50;;;16.63;;
10333;SDS011;5212;47.892;16.406;2024-03-02T02:04:10;31.50;;;16.73;;
10333;SDS011;5212;47.892;16.406;2024-03-02T02:06:36;30.07;;;15.93;;
10333;SDS011;5212;47.892;16.406;2024-03-02T02:09:02;28.17;;;15.17;;
10333;SDS011;5212;47.892;16.406;2024-03-02T02:11:28;28.63;;;16.23;;
10333;SDS011;5212;47.892;16.406;2024-03-02T02:13:54;31.57;;;16.40;;
10333;SDS011;5212;47.892;16.406;2024-03-02T02:16:20;31.83;;;15.77;;
10333;SDS011;5212;47.892;16.406;2024-03-02T02:18:47;28.53;;;15.17;;
10333;SDS011;5212;47.892;16.406;2024-03-02T02:21:13;36.67;;;19.73;;
10333;SDS011;5212;47.892;16.406;2024-03-02T02:23:40;34.80;;;18.07;;
10333;SDS011;5212;47.892;16.406;2024-03-02T02:26:11;29.90;;;16.47;;
10333;SDS011;5212;47.892;16.406;2024-03-02T02:28:37;30.20;;;17.23;;
10333;SDS011;5212;47.892;16.406;2024-03-02T02:31:04;29.10;;;16.77;;
10333;SDS011;5212;47.892;16.406;2024-03-02T02:33:30;29.80;;;16.63;;
10333;SDS011;5212;47.892;16.406;2024-03-02T02:35:55;32.23;;;16.67;;
10333;SDS011;5212;47.892;16.406;2024-03-02T02:38:21;28.83;;;16.50;;
10333;SDS011;5212;47.892;16.406;2024-03-02T02:40:48;27.27;;;15.30;;
10333;SDS011;5212;47.892;16.406;2024-03-02T02:43:14;29.27;;;15.00;;
10333;SDS011;5212;47.892;16.406;2024-03-02T02:45:40;27.23;;;15.37;;
10333;SDS011;5212;47.892;16.406;2024-03-02T02:48:06;30.80;;;16.20;;
10333;SDS011;5212;47.892;16.406;2024-03-02T02:50:32;26.23;;;14.80;;
10333;SDS011;5212;47.892;16.406;2024-03-02T02:52:58;27.27;;;15.63;;
10333;SDS011;5212;47.892;16.406;2024-03-02T02:55:24;28.80;;;15.03;;
10333;SDS011;5212;47.892;16.406;2024-03-02T02:57:51;26.77;;;15.33;;
10333;SDS011;5212;47.892;16.406;2024-03-02T03:00:17;24.30;;;13.63;;
10333;SDS011;5212;47.892;16.406;2024-03-02T03:02:45;23.97;;;13.90;;
10333;SDS011;5212;47.892;16.406;2024-03-02T03:05:13;19.87;;;11.90;;
10333;SDS011;5212;47.892;16.406;2024-03-02T03:07:39;21.63;;;12.57;;
10333;SDS011;5212;47.892;16.406;2024-03-02T03:10:06;24.60;;;15.37;;
10333;SDS011;5212;47.892;16.406;2024-03-02T03:12:33;28.73;;;14.80;;
10333;SDS011;5212;47.892;16.406;2024-03-02T03:15:00;30.23;;;15.77;;
10333;SDS011;5212;47.892;16.406;2024-03-02T03:17:26;27.43;;;15.83;;
10333;SDS011;5212;47.892;16.406;2024-03-02T03:19:52;31.67;;;16.47;;
10333;SDS011;5212;47.892;16.406;2024-03-02T03:22:18;30.37;;;16.57;;
10333;SDS011;5212;47.892;16.406;2024-03-02T03:24:44;29.17;;;16.67;;
10333;SDS011;5212;47.892;16.406;2024-03-02T03:27:10;28.13;;;16.47;;
10333;SDS011;5212;47.892;16.406;2024-03-02T03:29:37;29.27;;;16.67;;
10333;SDS011;5212;47.892;16.406;2024-03-02T03:32:04;29.23;;;15.83;;
10333;SDS011;5212;47.892;16.406;2024-03-02T03:34:32;29.17;;;15.70;;
10333;SDS011;5212;47.892;16.406;2024-03-02T03:36:58;30.30;;;16.87;;
10333;SDS011;5212;47.892;16.406;2024-03-02T03:39:24;28.70;;;16.33;;
10333;SDS011;5212;47.892;16.406;2024-03-02T03:41:50;27.27;;;16.20;;
10333;SDS011;5212;47.892;16.406;2024-03-02T03:44:16;32.33;;;18.67;;
10333;SDS011;5212;47.892;16.406;2024-03-02T03:46:42;33.93;;;17.93;;
10333;SDS011;5212;47.892;16.406;2024-03-02T03:49:09;37.37;;;18.87;;
10333;SDS011;5212;47.892;16.406;2024-03-02T03:51:35;36.73;;;17.47;;
10333;SDS011;5212;47.892;16.406;2024-03-02T03:54:01;29.67;;;17.10;;
10333;SDS011;5212;47.892;16.406;2024-03-02T03:56:27;30.83;;;16.47;;
10333;SDS011;5212;47.892;16.406;2024-03-02T03:58:53;33.37;;;17.47;;
10333;SDS011;5212;47.892;16.406;2024-03-02T04:01:19;24.33;;;13.83;;
10333;SDS011;5212;47.892;16.406;2024-03-02T04:03:45;29.80;;;16.20;;
10333;SDS011;5212;47.892;16.406;2024-03-02T04:06:11;26.90;;;14.83;;
10333;SDS011;5212;47.892;16.406;2024-03-02T04:08:38;27.00;;;15.37;;
10333;SDS011;5212;47.892;16.406;2024-03-02T04:11:04;26.87;;;14.73;;
10333;SDS011;5212;47.892;16.406;2024-03-02T04:13:31;27.47;;;15.77;;
10333;SDS011;5212;47.892;16.406;2024-03-02T04:15:57;30.13;;;15.90;;
10333;SDS011;5212;47.892;16.406;2024-03-02T04:18:23;29.00;;;15.50;;
10333;SDS011;5212;47.892;16.406;2024-03-02T04:20:49;35.33;;;15.83;;
10333;SDS011;5212;47.892;16.406;2024-03-02T04:23:16;36.23;;;16.87;;
10333;SDS011;5212;47.892;16.406;2024-03-02T04:25:42;29.00;;;16.23;;
10333;SDS011;5212;47.892;16.406;2024-03-02T04:28:08;27.53;;;14.27;;
10333;SDS011;5212;47.892;16.406;2024-03-02T04:30:34;30.20;;;13.67;;
10333;SDS011;5212;47.892;16.406;2024-03-02T04:33:00;22.40;;;12.00;;
10333;SDS011;5212;47.892;16.406;2024-03-02T04:35:27;22.73;;;12.20;;
10333;SDS011;5212;47.892;16.406;2024-03-02T04:37:54;22.43;;;13.13;;
10333;SDS011;5212;47.892;16.406;2024-03-02T04:40:20;26.37;;;13.57;;
10333;SDS011;5212;47.892;16.406;2024-03-02T04:42:46;27.60;;;14.57;;
10333;SDS011;5212;47.892;16.406;2024-03-02T04:45:12;29.83;;;15.77;;
10333;SDS011;5212;47.892;16.406;2024-03-02T04:47:38;27.10;;;15.53;;
10333;SDS011;5212;47.892;16.406;2024-03-02T04:50:05;24.83;;;14.80;;
10333;SDS011;5212;47.892;16.406;2024-03-02T04:52:32;29.27;;;15.30;;
10333;SDS011;5212;47.892;16.406;2024-03-02T04:54:58;27.23;;;16.43;;
10333;SDS011;5212;47.892;16.406;2024-03-02T04:57:50;28.63;;;15.93;;
10333;SDS011;5212;47.892;16.406;2024-03-02T05:00:19;27.80;;;15.27;;
10333;SDS011;5212;47.892;16.406;2024-03-02T05:02:45;27.87;;;15.23;;
10333;SDS011;5212;47.892;16.406;2024-03-02T05:05:11;27.50;;;14.53;;
10333;SDS011;5212;47.892;16.406;2024-03-02T05:07:37;23.03;;;13.63;;
10333;SDS011;5212;47.892;16.406;2024-03-02T05:10:03;21.33;;;12.30;;
10333;SDS011;5212;47.892;16.406;2024-03-02T05:12:30;26.93;;;15.50;;
10333;SDS011;5212;47.892;16.406;2024-03-02T05:15:15;29.07;;;14.97;;
10333;SDS011;5212;47.892;16.406;2024-03-02T05:17:42;27.83;;;15.40;;
10333;SDS011;5212;47.892;16.406;2024-03-02T05:20:08;27.03;;;15.13;;
10333;SDS011;5212;47.892;16.406;2024-03-02T05:22:35;22.10;;;12.27;;
10333;SDS011;5212;47.892;16.406;2024-03-02T05:25:02;24.67;;;14.60;;
10333;SDS011;5212;47.892;16.406;2024-03-02T05:27:28;23.40;;;13.73;;
10333;SDS011;5212;47.892;16.406;2024-03-02T05:29:54;29.07;;;15.37;;
10333;SDS011;5212;47.892;16.406;2024-03-02T05:32:21;30.73;;;15.57;;
10333;SDS011;5212;47.892;16.406;2024-03-02T05:34:47;28.93;;;15.90;;
10333;SDS011;5212;47.892;16.406;2024-03-02T05:37:13;25.17;;;14.20;;
10333;SDS011;5212;47.892;16.406;2024-03-02T05:39:41;22.60;;;13.43;;
10333;SDS011;5212;47.892;16.406;2024-03-02T05:42:08;30.40;;;15.87;;
10333;SDS011;5212;47.892;16.406;2024-03-02T05:44:34;29.87;;;16.77;;
10333;SDS011;5212;47.892;16.406;2024-03-02T05:47:00;30.17;;;16.23;;
10333;SDS011;5212;47.892;16.406;2024-03-02T05:49:27;29.20;;;15.47;;
10333;SDS011;5212;47.892;16.406;2024-03-02T05:51:53;25.43;;;14.20;;
10333;SDS011;5212;47.892;16.406;2024-03-02T05:54:19;23.97;;;15.00;;
10333;SDS011;5212;47.892;16.406;2024-03-02T05:56:45;29.97;;;16.90;;
10333;SDS011;5212;47.892;16.406;2024-03-02T05:59:11;30.70;;;17.20;;
10333;SDS011;5212;47.892;16.406;2024-03-02T06:01:38;28.47;;;16.47;;
10333;SDS011;5212;47.892;16.406;2024-03-02T06:04:04;29.67;;;16.23;;
10333;SDS011;5212;47.892;16.406;2024-03-02T06:06:30;29.87;;;15.37;;
10333;SDS011;5212;47.892;16.406;2024-03-02T06:08:59;29.40;;;16.27;;
10333;SDS011;5212;47.892;16.406;2024-03-02T06:11:25;27.00;;;15.77;;
10333;SDS011;5212;47.892;16.406;2024-03-02T06:13:51;28.37;;;15.73;;
10333;SDS011;5212;47.892;16.406;2024-03-02T06:16:17;23.83;;;13.70;;
10333;SDS011;5212;47.892;16.406;2024-03-02T06:18:43;32.67;;;15.90;;
10333;SDS011;5212;47.892;16.406;2024-03-02T06:21:09;29.37;;;16.67;;
10333;SDS011;5212;47.892;16.406;2024-03-02T06:23:35;28.37;;;14.43;;
10333;SDS011;5212;47.892;16.406;2024-03-02T06:26:01;30.73;;;15.47;;
10333;SDS011;5212;47.892;16.406;2024-03-02T06:28:27;32.87;;;18.13;;
10333;SDS011;5212;47.892;16.406;2024-03-02T06:30:53;32.23;;;17.60;;
10333;SDS011;5212;47.892;16.406;2024-03-02T06:33:19;28.93;;;16.80;;
10333;SDS011;5212;47.892;16.406;2024-03-02T06:35:45;29.27;;;16.17;;
10333;SDS011;5212;47.892;16.406;2024-03-02T06:38:11;33.43;;;17.53;;
10333;SDS011;5212;47.892;16.406;2024-03-02T06:40:38;31.67;;;17.43;;
10333;SDS011;5212;47.892;16.406;2024-03-02T06:43:04;29.23;;;17.20;;
10333;SDS011;5212;47.892;16.406;2024-03-02T06:45:30;32.57;;;17.23;;
10333;SDS011;5212;47.892;16.406;2024-03-02T06:47:56;28.67;;;16.13;;
10333;SDS011;5212;47.892;16.406;2024-03-02T06:50:22;27.00;;;15.07;;
10333;SDS011;5212;47.892;16.406;2024-03-02T06:52:48;32.27;;;16.53;;
10333;SDS011;5212;47.892;16.406;2024-03-02T06:55:14;26.60;;;14.70;;
10333;SDS011;5212;47.892;16.406;2024-03-02T06:57:41;26.83;;;13.87;;
10333;SDS011;5212;47.892;16.406;2024-03-02T07:00:07;26.33;;;13.67;;
10333;SDS011;5212;47.892;16.406;2024-03-02T07:02:34;26.50;;;15.23;;
10333;SDS011;5212;47.892;16.406;2024-03-02T07:05:01;24.70;;;13.83;;
10333;SDS011;5212;47.892;16.406;2024-03-02T07:07:27;25.40;;;15.50;;
10333;SDS011;5212;47.892;16.406;2024-03-02T07:09:53;28.03;;;14.97;;
10333;SDS011;5212;47.892;16.406;2024-03-02T07:12:19;25.77;;;15.57;;
10333;SDS011;5212;47.892;16.406;2024-03-02T07:14:45;26.83;;;14.43;;
10333;SDS011;5212;47.892;16.406;2024-03-02T07:17:36;29.83;;;16.13;;
10333;SDS011;5212;47.892;16.406;2024-03-02T07:20:02;27.83;;;15.60;;
10333;SDS011;5212;47.892;16.406;2024-03-02T07:22:29;27.83;;;14.70;;
10333;SDS011;5212;47.892;16.406;2024-03-02T07:24:55;24.07;;;14.37;;
10333;SDS011;5212;47.892;16.406;2024-03-02T07:27:21;29.30;;;16.47;;
10333;SDS011;5212;47.892;16.406;2024-03-02T07:29:48;27.50;;;15.13;;
10333;SDS011;5212;47.892;16.406;2024-03-02T07:32:14;28.37;;;16.13;;
10333;SDS011;5212;47.892;16.406;2024-03-02T07:34:40;29.87;;;15.77;;
10333;SDS011;5212;47.892;16.406;2024-03-02T07:37:06;29.90;;;16.37;;
10333;SDS011;5212;47.892;16.406;2024-03-02T07:39:32;26.27;;;14.13;;
10333;SDS011;5212;47.892;16.406;2024-03-02T07:41:58;31.33;;;16.07;;
10333;SDS011;5212;47.892;16.406;2024-03-02T07:44:25;27.70;;;15.37;;
10333;SDS011;5212;47.892;16.406;2024-03-02T07:46:54;27.17;;;16.77;;
10333;SDS011;5212;47.892;16.406;2024-03-02T07:49:20;32.83;;;16.53;;
10333;SDS011;5212;47.892;16.406;2024-03-02T07:51:46;24.03;;;13.20;;
10333;SDS011;5212;47.892;16.406;2024-03-02T07:54:12;26.13;;;13.67;;
10333;SDS011;5212;47.892;16.406;2024-03-02T07:56:38;24.40;;;12.50;;
10333;SDS011;5212;47.892;16.406;2024-03-02T07:59:04;21.90;;;12.27;;
10333;SDS011;5212;47.892;16.406;2024-03-02T08:01:32;22.57;;;13.57;;
10333;SDS011;5212;47.892;16.406;2024-03-02T08:03:59;22.13;;;14.17;;
10333;SDS011;5212;47.892;16.406;2024-03-02T08:06:26;22.07;;;12.93;;
10333;SDS011;5212;47.892;16.406;2024-03-02T08:08:53;26.60;;;15.30;;
10333;SDS011;5212;47.892;16.406;2024-03-02T08:11:19;21.90;;;12.60;;
10333;SDS011;5212;47.892;16.406;2024-03-02T08:13:45;23.97;;;13.00;;
10333;SDS011;5212;47.892;16.406;2024-03-02T08:16:11;30.67;;;15.73;;
10333;SDS011;5212;47.892;16.406;2024-03-02T08:18:37;30.47;;;17.40;;
10333;SDS011;5212;47.892;16.406;2024-03-02T08:21:04;23.57;;;13.30;;
10333;SDS011;5212;47.892;16.406;2024-03-02T08:23:30;21.47;;;12.67;;
10333;SDS011;5212;47.892;16.406;2024-03-02T08:25:57;21.27;;;13.70;;
10333;SDS011;5212;47.892;16.406;2024-03-02T08:28:23;18.23;;;12.33;;
10333;SDS011;5212;47.892;16.406;2024-03-02T08:30:49;20.23;;;12.77;;
10333;SDS011;5212;47.892;16.406;2024-03-02T08:33:15;22.63;;;13.43;;
10333;SDS011;5212;47.892;16.406;2024-03-02T08:35:41;21.10;;;13.40;;
10333;SDS011;5212;47.892;16.406;2024-03-02T08:38:07;24.53;;;13.00;;
10333;SDS011;5212;47.892;16.406;2024-03-02T08:40:33;22.87;;;14.53;;
10333;SDS011;5212;47.892;16.406;2024-03-02T08:43:00;24.50;;;14.20;;
10333;SDS011;5212;47.892;16.406;2024-03-02T08:45:26;28.07;;;15.27;;
10333;SDS011;5212;47.892;16.406;2024-03-02T08:47:52;25.73;;;14.83;;
10333;SDS011;5212;47.892;16.406;2024-03-02T08:50:18;25.23;;;15.63;;
10333;SDS011;5212;47.892;16.406;2024-03-02T08:52:44;28.00;;;14.23;;
10333;SDS011;5212;47.892;16.406;2024-03-02T08:55:10;21.80;;;13.83;;
10333;SDS011;5212;47.892;16.406;2024-03-02T08:57:36;30.10;;;16.13;;
10333;SDS011;5212;47.892;16.406;2024-03-02T09:00:03;23.77;;;14.27;;
10333;SDS011;5212;47.892;16.406;2024-03-02T09:02:30;25.63;;;13.20;;
10333;SDS011;5212;47.892;16.406;2024-03-02T09:04:56;22.83;;;13.93;;
10333;SDS011;5212;47.892;16.406;2024-03-02T09:07:23;21.33;;;12.80;;
10333;SDS011;5212;47.892;16.406;2024-03-02T09:09:49;22.53;;;12.87;;
10333;SDS011;5212;47.892;16.406;2024-03-02T09:12:15;25.23;;;13.63;;
10333;SDS011;5212;47.892;16.406;2024-03-02T09:14:42;21.57;;;13.40;;
10333;SDS011;5212;47.892;16.406;2024-03-02T09:17:08;24.63;;;13.87;;
10333;SDS011;5212;47.892;16.406;2024-03-02T09:19:35;24.13;;;12.77;;
10333;SDS011;5212;47.892;16.406;2024-03-02T09:22:01;22.87;;;13.47;;
10333;SDS011;5212;47.892;16.406;2024-03-02T09:24:28;24.50;;;13.73;;
10333;SDS011;5212;47.892;16.406;2024-03-02T09:26:54;25.77;;;14.60;;
10333;SDS011;5212;47.892;16.406;2024-03-02T09:29:21;18.87;;;11.47;;
10333;SDS011;5212;47.892;16.406;2024-03-02T09:31:47;25.07;;;13.50;;
10333;SDS011;5212;47.892;16.406;2024-03-02T09:34:14;20.60;;;12.23;;
10333;SDS011;5212;47.892;16.406;2024-03-02T09:36:46;23.60;;;12.83;;
10333;SDS011;5212;47.892;16.406;2024-03-02T09:39:19;26.70;;;14.77;;
10333;SDS011;5212;47.892;16.406;2024-03-02T09:41:45;24.73;;;14.23;;
10333;SDS011;5212;47.892;16.406;2024-03-02T09:44:13;25.97;;;14.43;;
10333;SDS011;5212;47.892;16.406;2024-03-02T09:46:39;24.23;;;14.00;;
10333;SDS011;5212;47.892;16.406;2024-03-02T09:49:05;25.33;;;13.97;;
10333;SDS011;5212;47.892;16.406;2024-03-02T09:51:31;26.80;;;14.40;;
10333;SDS011;5212;47.892;16.406;2024-03-02T09:53:57;25.30;;;14.63;;
10333;SDS011;5212;47.892;16.406;2024-03-02T09:56:26;28.33;;;14.03;;
10333;SDS011;5212;47.892;16.406;2024-03-02T09:58:52;21.73;;;13.53;;
10333;SDS011;5212;47.892;16.406;2024-03-02T10:01:18;26.03;;;14.27;;
10333;SDS011;5212;47.892;16.406;2024-03-02T10:03:45;29.03;;;14.70;;
10333;SDS011;5212;47.892;16.406;2024-03-02T10:06:18;24.80;;;13.53;;
10333;SDS011;5212;47.892;16.406;2024-03-02T10:08:45;23.43;;;12.90;;
10333;SDS011;5212;47.892;16.406;2024-03-02T10:11:11;22.07;;;13.37;;
10333;SDS011;5212;47.892;16.406;2024-03-02T10:13:51;24.17;;;14.67;;
10333;SDS011;5212;47.892;16.406;2024-03-02T10:16:17;24.40;;;13.47;;
10333;SDS011;5212;47.892;16.406;2024-03-02T10:18:43;25.00;;;14.13;;
10333;SDS011;5212;47.892;16.406;2024-03-02T10:21:13;22.63;;;13.60;;
10333;SDS011;5212;47.892;16.406;2024-03-02T10:23:39;20.93;;;12.43;;
10333;SDS011;5212;47.892;16.406;2024-03-02T10:26:06;29.30;;;15.77;;
10333;SDS011;5212;47.892;16.406;2024-03-02T10:28:45;25.70;;;14.47;;
10333;SDS011;5212;47.892;16.406;2024-03-02T10:31:12;22.37;;;12.33;;
10333;SDS011;5212;47.892;16.406;2024-03-02T10:33:38;18.93;;;10.80;;
10333;SDS011;5212;47.892;16.406;2024-03-02T10:36:05;19.17;;;11.53;;
10333;SDS011;5212;47.892;16.406;2024-03-02T10:38:32;16.93;;;10.00;;
10333;SDS011;5212;47.892;16.406;2024-03-02T10:40:58;15.70;;;9.00;;
10333;SDS011;5212;47.892;16.406;2024-03-02T10:43:25;12.70;;;6.80;;
10333;SDS011;5212;47.892;16.406;2024-03-02T10:45:51;11.07;;;5.93;;
10333;SDS011;5212;47.892;16.406;2024-03-02T10:48:18;11.90;;;6.40;;
10333;SDS011;5212;47.892;16.406;2024-03-02T10:50:44;9.17;;;5.50;;
10333;SDS011;5212;47.892;16.406;2024-03-02T10:53:14;10.33;;;5.80;;
10333;SDS011;5212;47.892;16.406;2024-03-02T10:55:48;12.87;;;7.37;;
10333;SDS011;5212;47.892;16.406;2024-03-02T10:58:19;12.67;;;8.17;;
10333;SDS011;5212;47.892;16.406;2024-03-02T11:00:45;11.70;;;7.00;;
10333;SDS011;5212;47.892;16.406;2024-03-02T11:03:11;12.03;;;7.03;;
10333;SDS011;5212;47.892;16.406;2024-03-02T11:05:40;16.33;;;8.23;;
10333;SDS011;5212;47.892;16.406;2024-03-02T11:08:12;16.07;;;8.60;;
10333;SDS011;5212;47.892;16.406;2024-03-02T11:10:49;12.67;;;7.53;;
10333;SDS011;5212;47.892;16.406;2024-03-02T11:13:18;16.47;;;9.83;;
10333;SDS011;5212;47.892;16.406;2024-03-02T11:15:50;18.20;;;10.97;;
10333;SDS011;5212;47.892;16.406;2024-03-02T11:18:18;16.47;;;10.37;;
10333;SDS011;5212;47.892;16.406;2024-03-02T11:20:44;14.53;;;8.47;;
10333;SDS011;5212;47.892;16.406;2024-03-02T11:23:11;15.30;;;8.83;;
10333;SDS011;5212;47.892;16.406;2024-03-02T11:25:37;16.40;;;9.73;;
10333;SDS011;5212;47.892;16.406;2024-03-02T11:28:05;18.77;;;10.70;;
10333;SDS011;5212;47.892;16.406;2024-03-02T11:30:49;17.07;;;10.30;;
10333;SDS011;5212;47.892;16.406;2024-03-02T11:33:18;25.67;;;14.00;;
10333;SDS011;5212;47.892;16.406;2024-03-02T11:35:49;26.83;;;14.90;;
10333;SDS011;5212;47.892;16.406;2024-03-02T11:38:15;26.17;;;13.87;;
10333;SDS011;5212;47.892;16.406;2024-03-02T11:40:41;23.57;;;13.67;;
10333;SDS011;5212;47.892;16.406;2024-03-02T11:43:08;24.07;;;14.30;;
10333;SDS011;5212;47.892;16.406;2024-03-02T11:45:35;22.37;;;13.47;;
10333;SDS011;5212;47.892;16.406;2024-03-02T11:48:05;19.30;;;11.40;;
10333;SDS011;5212;47.892;16.406;2024-03-02T11:50:33;26.90;;;14.20;;
10333;SDS011;5212;47.892;16.406;2024-03-02T11:53:00;23.77;;;13.93;;
10333;SDS011;5212;47.892;16.406;2024-03-02T11:55:27;27.37;;;14.63;;
10333;SDS011;5212;47.892;16.406;2024-03-02T11:57:54;29.13;;;15.30;;
10333;SDS011;5212;47.892;16.406;2024-03-02T12:00:21;28.33;;;15.00;;
10333;SDS011;5212;47.892;16.406;2024-03-02T12:02:47;28.10;;;15.47;;
10333;SDS011;5212;47.892;16.406;2024-03-02T12:05:25;26.93;;;15.57;;
10333;SDS011;5212;47.892;16.406;2024-03-02T12:07:55;29.77;;;15.77;;
10333;SDS011;5212;47.892;16.406;2024-03-02T12:10:21;30.97;;;15.83;;
10333;SDS011;5212;47.892;16.406;2024-03-02T12:12:47;32.00;;;17.10;;
10333;SDS011;5212;47.892;16.406;2024-03-02T12:15:13;30.73;;;17.60;;
10333;SDS011;5212;47.892;16.406;2024-03-02T12:17:40;33.23;;;17.67;;
10333;SDS011;5212;47.892;16.406;2024-03-02T12:20:06;33.20;;;16.90;;
10333;SDS011;5212;47.892;16.406;2024-03-02T12:22:32;31.67;;;16.60;;
10333;SDS011;5212;47.892;16.406;2024-03-02T12:24:58;29.23;;;16.50;;
10333;SDS011;5212;47.892;16.406;2024-03-02T12:27:24;28.80;;;16.43;;
10333;SDS011;5212;47.892;16.406;2024-03-02T12:29:50;28.40;;;16.20;;
10333;SDS011;5212;47.892;16.406;2024-03-02T12:32:16;32.13;;;17.50;;
10333;SDS011;5212;47.892;16.406;2024-03-02T12:34:46;28.30;;;16.37;;
10333;SDS011;5212;47.892;16.406;2024-03-02T12:37:12;32.63;;;17.83;;
10333;SDS011;5212;47.892;16.406;2024-03-02T12:39:39;35.40;;;18.97;;
10333;SDS011;5212;47.892;16.406;2024-03-02T12:42:05;32.43;;;18.27;;
10333;SDS011;5212;47.892;16.406;2024-03-02T12:44:31;35.50;;;18.70;;
10333;SDS011;5212;47.892;16.406;2024-03-02T12:46:57;34.30;;;19.23;;
10333;SDS011;5212;47.892;16.406;2024-03-02T12:49:23;35.10;;;19.13;;
10333;SDS011;5212;47.892;16.406;2024-03-02T12:51:50;37.20;;;20.07;;
10333;SDS011;5212;47.892;16.406;2024-03-02T12:54:21;39.83;;;21.00;;
10333;SDS011;5212;47.892;16.406;2024-03-02T12:56:48;39.50;;;19.97;;
10333;SDS011;5212;47.892;16.406;2024-03-02T12:59:17;40.47;;;20.47;;
10333;SDS011;5212;47.892;16.406;2024-03-02T13:01:49;38.57;;;19.97;;
10333;SDS011;5212;47.892;16.406;2024-03-02T13:04:16;32.40;;;17.63;;
10333;SDS011;5212;47.892;16.406;2024-03-02T13:06:42;29.37;;;16.67;;
10333;SDS011;5212;47.892;16.406;2024-03-02T13:09:09;30.77;;;17.50;;
10333;SDS011;5212;47.892;16.406;2024-03-02T13:11:39;31.77;;;18.10;;
10333;SDS011;5212;47.892;16.406;2024-03-02T13:14:05;31.93;;;17.60;;
10333;SDS011;5212;47.892;16.406;2024-03-02T13:16:31;33.83;;;19.17;;
10333;SDS011;5212;47.892;16.406;2024-03-02T13:18:57;31.30;;;17.67;;
10333;SDS011;5212;47.892;16.406;2024-03-02T13:21:23;33.43;;;17.70;;
10333;SDS011;5212;47.892;16.406;2024-03-02T13:23:49;38.17;;;19.53;;
10333;SDS011;5212;47.892;16.406;2024-03-02T13:26:16;37.17;;;19.77;;
10333;SDS011;5212;47.892;16.406;2024-03-02T13:28:42;33.03;;;19.93;;
10333;SDS011;5212;47.892;16.406;2024-03-02T13:31:08;34.73;;;18.37;;
10333;SDS011;5212;47.892;16.406;2024-03-02T13:33:34;33.80;;;18.97;;
10333;SDS011;5212;47.892;16.406;2024-03-02T13:36:00;34.33;;;19.03;;
10333;SDS011;5212;47.892;16.406;2024-03-02T13:38:28;35.63;;;18.83;;
10333;SDS011;5212;47.892;16.406;2024-03-02T13:40:54;35.63;;;17.97;;
10333;SDS011;5212;47.892;16.406;2024-03-02T13:43:20;37.13;;;18.47;;
10333;SDS011;5212;47.892;16.406;2024-03-02T13:45:47;36.03;;;18.37;;
10333;SDS011;5212;47.892;16.406;2024-03-02T13:48:13;38.93;;;19.33;;
10333;SDS011;5212;47.892;16.406;2024-03-02T13:50:39;35.60;;;19.53;;
10333;SDS011;5212;47.892;16.406;2024-03-02T13:53:06;35.03;;;20.13;;
10333;SDS011;5212;47.892;16.406;2024-03-02T13:55:32;36.07;;;19.50;;
10333;SDS011;5212;47.892;16.406;2024-03-02T13:57:58;39.10;;;20.43;;
10333;SDS011;5212;47.892;16.406;2024-03-02T14:00:25;39.90;;;20.73;;
10333;SDS011;5212;47.892;16.406;2024-03-02T14:02:51;34.47;;;20.73;;
10333;SDS011;5212;47.892;16.406;2024-03-02T14:05:17;40.10;;;21.37;;
10333;SDS011;5212;47.892;16.406;2024-03-02T14:07:44;41.87;;;21.80;;
10333;SDS011;5212;47.892;16.406;2024-03-02T14:10:10;39.97;;;22.20;;
10333;SDS011;5212;47.892;16.406;2024-03-02T14:12:36;40.87;;;21.20;;
10333;SDS011;5212;47.892;16.406;2024-03-02T14:15:02;41.60;;;21.20;;
10333;SDS011;5212;47.892;16.406;2024-03-02T14:17:29;43.83;;;20.77;;
10333;SDS011;5212;47.892;16.406;2024-03-02T14:19:56;38.53;;;20.80;;